createdAt,value
2022-09-20T00:00:46.588Z,77.35
2022-09-20T00:03:13.874Z,77.32
2022-09-20T00:05:41.652Z,77.26
2022-09-20T00:08:10.847Z,77.30
2022-09-20T00:10:39.372Z,77.38
2022-09-20T00:13:06.835Z,77.63
2022-09-20T00:15:34.317Z,77.91
2022-09-20T00:18:01.374Z,77.38
2022-09-20T00:20:28.544Z,78.22
2022-09-20T00:22:55.692Z,78.54
2022-09-20T00:25:22.797Z,78.10
2022-09-20T00:27:50.474Z,77.24
2022-09-20T00:30:17.636Z,77.29
2022-09-20T00:32:44.857Z,76.35
2022-09-20T00:35:12.109Z,75.17
2022-09-20T00:37:42.326Z,76.63
2022-09-20T00:40:10.701Z,76.92
2022-09-20T00:42:37.887Z,77.49
2022-09-20T00:45:13.057Z,77.23
2022-09-20T00:47:41.707Z,76.82
2022-09-20T00:50:14.067Z,76.82
2022-09-20T00:52:43.873Z,77.08
2022-09-20T00:55:10.901Z,76.73
2022-09-20T00:57:38.742Z,77.10
2022-09-20T01:00:09.385Z,77.12
2022-09-20T01:02:37.862Z,76.56
2022-09-20T01:05:05.266Z,76.16
2022-09-20T01:07:34.326Z,75.61
2022-09-20T01:10:01.608Z,76.64
2022-09-20T01:12:34.352Z,76.52
2022-09-20T01:15:02.762Z,77.14
2022-09-20T01:17:30.414Z,77.34
2022-09-20T01:20:09.936Z,77.49
2022-09-20T01:22:48.997Z,77.80
2022-09-20T01:25:27.459Z,77.90
2022-09-20T01:27:54.509Z,77.85
2022-09-20T01:30:22.462Z,78.25
2022-09-20T01:32:49.574Z,77.45
2022-09-20T01:35:17.146Z,77.76
2022-09-20T01:37:54.493Z,77.97
2022-09-20T01:40:32.998Z,78.46
2022-09-20T01:43:07.334Z,77.84
2022-09-20T01:45:34.734Z,78.08
2022-09-20T01:48:19.279Z,78.72
2022-09-20T01:51:06.550Z,78.94
2022-09-20T01:53:55.978Z,78.74
2022-09-20T01:56:28.934Z,78.50
2022-09-20T01:59:30.467Z,79.00
2022-09-20T02:02:00.820Z,79.24
2022-09-20T02:04:28.001Z,79.88
2022-09-20T02:07:13.877Z,79.90
2022-09-20T02:09:44.289Z,79.92
2022-09-20T02:12:20.678Z,80.06
2022-09-20T02:15:14.030Z,80.26
2022-09-20T02:17:59.512Z,80.27
2022-09-20T02:20:32.428Z,79.09
2022-09-20T02:23:11.728Z,79.94
2022-09-20T02:25:43.513Z,79.90
2022-09-20T02:28:25.858Z,80.36
2022-09-20T02:30:52.893Z,79.84
2022-09-20T02:33:26.090Z,78.87
2022-09-20T02:36:05.165Z,79.13
2022-09-20T02:38:51.149Z,78.28
2022-09-20T02:41:31.151Z,79.22
2022-09-20T02:44:01.826Z,78.83
2022-09-20T02:46:28.987Z,77.42
2022-09-20T02:48:58.031Z,78.35
2022-09-20T02:51:41.442Z,78.87
2022-09-20T02:54:27.047Z,79.31
2022-09-20T02:56:56.930Z,78.96
2022-09-20T02:59:30.011Z,78.96
2022-09-20T03:02:15.533Z,79.01
2022-09-20T03:04:53.559Z,78.70
2022-09-20T03:07:39.579Z,78.50
2022-09-20T03:10:06.559Z,78.37
2022-09-20T03:12:43.342Z,78.70
2022-09-20T03:15:14.220Z,79.28
2022-09-20T03:17:49.049Z,78.79
2022-09-20T03:20:34.547Z,79.38
2022-09-20T03:23:01.902Z,80.45
2022-09-20T03:25:39.579Z,80.17
2022-09-20T03:28:09.767Z,80.28
2022-09-20T03:30:37.006Z,80.20
2022-09-20T03:33:16.926Z,78.90
2022-09-20T03:35:50.478Z,80.03
2022-09-20T03:38:20.792Z,79.36
2022-09-20T03:40:47.860Z,79.36
2022-09-20T03:43:17.968Z,78.30
2022-09-20T03:45:54.557Z,78.85
2022-09-20T03:48:29.648Z,76.10
2022-09-20T03:50:56.675Z,76.03
2022-09-20T03:53:43.180Z,76.74
2022-09-20T03:56:10.697Z,74.40
2022-09-20T03:58:44.511Z,73.78
2022-09-20T04:01:30.308Z,73.48
2022-09-20T04:04:03.243Z,72.27
2022-09-20T04:06:48.958Z,71.07
2022-09-20T04:09:29.654Z,71.09
2022-09-20T04:11:59.905Z,71.41
2022-09-20T04:14:30.321Z,71.13
2022-09-20T04:17:01.168Z,71.27
2022-09-20T04:19:33.254Z,70.96
2022-09-20T04:22:00.789Z,71.69
2022-09-20T04:24:46.698Z,72.00
2022-09-20T04:27:13.734Z,72.90
2022-09-20T04:29:40.851Z,72.18
2022-09-20T04:32:26.969Z,73.53
2022-09-20T04:35:18.749Z,73.58
2022-09-20T04:37:45.943Z,76.32
2022-09-20T04:40:14.983Z,79.70
2022-09-20T04:43:00.561Z,81.71
2022-09-20T04:45:37.304Z,84.16
2022-09-20T04:48:10.299Z,86.24
2022-09-20T04:50:37.941Z,87.05
2022-09-20T04:53:10.724Z,87.95
2022-09-20T04:55:41.191Z,88.40
2022-09-20T04:58:27.131Z,88.54
2022-09-20T05:01:19.682Z,88.91
2022-09-20T05:03:46.996Z,89.83
2022-09-20T05:06:20.277Z,90.84
2022-09-20T05:08:51.178Z,91.01
2022-09-20T05:11:39.132Z,92.15
2022-09-20T05:14:06.284Z,91.43
2022-09-20T05:16:50.273Z,92.16
2022-09-20T05:19:43.674Z,93.22
2022-09-20T05:22:25.848Z,92.99
2022-09-20T05:25:11.455Z,92.37
2022-09-20T05:27:43.435Z,92.26
2022-09-20T05:30:10.454Z,93.01
2022-09-20T05:32:45.427Z,93.62
2022-09-20T05:35:15.361Z,92.55
2022-09-20T05:38:00.283Z,91.26
2022-09-20T05:40:30.450Z,92.22
2022-09-20T05:43:03.532Z,91.24
2022-09-20T05:45:49.661Z,91.92
2022-09-20T05:48:19.771Z,91.52
2022-09-20T05:51:03.856Z,92.68
2022-09-20T05:53:31.372Z,92.26
2022-09-20T05:56:19.120Z,91.88
2022-09-20T05:59:04.452Z,91.68
2022-09-20T06:01:38.073Z,92.90
2022-09-20T06:04:05.794Z,91.68
2022-09-20T06:06:51.660Z,90.30
2022-09-20T06:09:22.338Z,90.55
2022-09-20T06:11:50.349Z,91.04
2022-09-20T06:14:22.131Z,91.60
2022-09-20T06:17:22.146Z,91.95
2022-09-20T06:20:21.585Z,92.72
2022-09-20T06:22:49.825Z,93.41
2022-09-20T06:25:19.496Z,93.10
2022-09-20T06:27:53.960Z,92.41
2022-09-20T06:30:22.819Z,91.50
2022-09-20T06:33:13.208Z,91.26
2022-09-20T06:35:41.767Z,90.70
2022-09-20T06:38:46.842Z,89.71
2022-09-20T06:41:29.838Z,90.29
2022-09-20T06:43:58.650Z,88.74
2022-09-20T06:46:29.468Z,89.66
2022-09-20T06:48:56.835Z,90.99
2022-09-20T06:51:24.575Z,89.38
2022-09-20T06:53:51.941Z,89.93
2022-09-20T06:56:19.891Z,91.50
2022-09-20T06:58:48.074Z,90.95
2022-09-20T07:01:22.973Z,90.84
2022-09-20T07:03:56.255Z,90.20
2022-09-20T07:06:23.423Z,90.94
2022-09-20T07:08:50.428Z,89.20
2022-09-20T07:11:17.914Z,89.54
2022-09-20T07:13:45.227Z,86.40
2022-09-20T07:16:13.676Z,87.32
2022-09-20T07:18:41.486Z,84.72
2022-09-20T07:21:12.353Z,86.29
2022-09-20T07:23:39.388Z,86.79
2022-09-20T07:26:06.620Z,85.77
2022-09-20T07:28:34.133Z,85.35
2022-09-20T07:31:01.229Z,83.13
2022-09-20T07:33:28.407Z,83.20
2022-09-20T07:35:55.748Z,81.75
2022-09-20T07:38:22.892Z,80.25
2022-09-20T07:40:56.895Z,81.84
2022-09-20T07:43:24.470Z,81.64
2022-09-20T07:45:54.525Z,79.66
2022-09-20T07:48:25.896Z,80.03
2022-09-20T07:50:57.274Z,77.09
2022-09-20T07:53:24.279Z,80.43
2022-09-20T07:55:58.410Z,77.24
2022-09-20T07:58:25.588Z,78.13
2022-09-20T08:00:54.241Z,77.67
2022-09-20T08:03:21.643Z,80.76
2022-09-20T08:05:52.291Z,79.31
2022-09-20T08:08:19.471Z,79.27
2022-09-20T08:10:46.675Z,76.12
2022-09-20T08:16:04.721Z,60.79
2022-09-20T08:18:32.437Z,58.64
2022-09-20T08:21:06.308Z,57.95
2022-09-20T08:23:43.069Z,55.79
2022-09-20T08:26:13.561Z,51.69
2022-09-20T08:28:40.957Z,48.85
2022-09-20T08:31:09.062Z,50.29
2022-09-20T08:33:37.986Z,49.81
2022-09-20T08:36:06.041Z,49.42
2022-09-20T08:41:21.691Z,53.52
2022-09-20T08:43:52.083Z,56.81
2022-09-20T08:46:23.318Z,59.69
2022-09-20T08:48:52.182Z,52.12
2022-09-20T08:51:23.161Z,49.78
2022-09-20T08:53:51.383Z,51.00
2022-09-20T08:56:19.062Z,54.80
2022-09-20T08:58:46.473Z,56.59
2022-09-20T09:01:14.646Z,49.38
2022-09-20T09:03:41.914Z,50.48
2022-09-20T09:06:14.167Z,50.53
2022-09-20T09:08:44.695Z,55.78
2022-09-20T09:11:15.793Z,59.83
2022-09-20T09:13:44.929Z,61.88
2022-09-20T09:16:13.300Z,62.69
2022-09-20T09:18:41.413Z,62.78
2022-09-20T09:21:10.489Z,62.26
2022-09-20T09:23:41.586Z,59.34
2022-09-20T09:26:22.117Z,59.75
2022-09-20T09:29:30.653Z,57.25
2022-09-20T09:32:16.744Z,57.11
2022-09-20T09:34:43.821Z,60.88
2022-09-20T09:37:29.079Z,61.40
2022-09-20T09:40:26.242Z,63.32
2022-09-20T09:42:57.048Z,64.92
2022-09-20T09:45:38.601Z,69.63
2022-09-20T09:48:18.128Z,71.02
2022-09-20T09:50:45.178Z,68.71
2022-09-20T09:53:13.099Z,69.45
2022-09-20T09:56:00.428Z,69.63
2022-09-20T09:58:46.353Z,68.61
2022-09-20T10:01:20.146Z,67.10
2022-09-20T10:03:50.459Z,64.78
2022-09-20T10:06:22.945Z,67.10
2022-09-20T10:09:08.811Z,70.37
2022-09-20T10:11:48.075Z,70.62
2022-09-20T10:14:44.842Z,73.30
2022-09-20T10:17:18.023Z,74.61
2022-09-20T10:19:45.133Z,75.03
2022-09-20T10:22:24.708Z,76.16
2022-09-20T10:25:12.055Z,76.03
2022-09-20T10:27:57.733Z,77.01
2022-09-20T10:30:25.834Z,75.59
2022-09-20T10:32:54.034Z,76.24
2022-09-20T10:35:21.348Z,76.08
2022-09-20T10:38:00.871Z,77.34
2022-09-20T10:40:51.018Z,76.07
2022-09-20T10:43:28.112Z,77.95
2022-09-20T10:46:31.843Z,78.37
2022-09-20T10:49:03.477Z,80.91
2022-09-20T10:51:49.377Z,79.90
2022-09-20T10:54:29.201Z,79.51
2022-09-20T10:57:03.541Z,80.13
2022-09-20T10:59:33.791Z,79.92
2022-09-20T11:02:01.415Z,80.95
2022-09-20T11:04:37.501Z,80.59
2022-09-20T11:07:07.435Z,80.92
2022-09-20T11:09:36.210Z,80.28
2022-09-20T11:12:10.348Z,80.40
2022-09-20T11:14:41.428Z,82.47
2022-09-20T11:17:12.788Z,85.53
2022-09-20T11:19:57.595Z,88.48
2022-09-20T11:22:30.297Z,89.37
2022-09-20T11:24:58.912Z,90.10
2022-09-20T11:27:33.011Z,88.94
2022-09-20T11:30:04.565Z,89.35
2022-09-20T11:32:44.899Z,90.17
2022-09-20T11:35:11.913Z,90.11
2022-09-20T11:37:40.067Z,89.58
2022-09-20T11:40:20.721Z,89.80
2022-09-20T11:42:48.156Z,87.30
2022-09-20T11:45:17.341Z,84.90
2022-09-20T11:47:55.332Z,82.17
2022-09-20T11:50:33.085Z,83.90
2022-09-20T11:53:15.229Z,83.22
2022-09-20T11:55:45.137Z,83.80
2022-09-20T11:58:12.633Z,80.57
2022-09-20T12:00:41.478Z,79.64
2022-09-20T12:03:21.454Z,78.44
2022-09-20T12:05:48.558Z,77.12
2022-09-20T12:08:22.024Z,75.68
2022-09-20T12:10:56.601Z,74.03
2022-09-20T12:13:25.144Z,73.78
2022-09-20T12:16:09.217Z,74.73
2022-09-20T12:18:54.930Z,74.65
2022-09-20T12:21:22.028Z,73.17
2022-09-20T12:23:55.168Z,73.42
2022-09-20T12:26:22.495Z,75.30
2022-09-20T12:28:50.229Z,75.09
2022-09-20T12:31:29.630Z,76.51
2022-09-20T12:34:12.194Z,74.51
2022-09-20T12:36:40.237Z,75.24
2022-09-20T12:39:11.074Z,74.18
2022-09-20T12:41:51.612Z,75.64
2022-09-20T12:44:31.303Z,73.98
2022-09-20T12:46:59.752Z,75.35
2022-09-20T12:50:05.863Z,74.13
2022-09-20T12:52:56.318Z,69.02
2022-09-20T12:55:45.508Z,66.07
2022-09-20T12:58:15.318Z,68.39
2022-09-20T13:00:42.779Z,69.96
2022-09-20T13:03:16.797Z,70.99
2022-09-20T13:05:47.506Z,72.21
2022-09-20T13:08:20.303Z,72.62
2022-09-20T13:11:00.761Z,70.74
2022-09-20T13:13:29.051Z,73.43
2022-09-20T13:15:56.151Z,74.88
2022-09-20T13:18:25.102Z,74.80
2022-09-20T13:20:52.238Z,74.41
2022-09-20T13:23:20.437Z,74.11
2022-09-20T13:25:47.647Z,74.36
2022-09-20T13:28:34.430Z,74.65
2022-09-20T13:31:20.353Z,76.67
2022-09-20T13:33:50.385Z,76.62
2022-09-20T13:36:20.036Z,76.90
2022-09-20T13:38:49.462Z,76.58
2022-09-20T13:41:16.599Z,75.77
2022-09-20T13:43:44.416Z,76.69
2022-09-20T13:46:18.662Z,77.58
2022-09-20T13:48:49.120Z,78.37
2022-09-20T13:51:26.581Z,75.56
2022-09-20T13:53:54.044Z,76.41
2022-09-20T13:56:21.534Z,77.54
2022-09-20T13:58:48.943Z,77.78
2022-09-20T14:01:33.132Z,79.25
2022-09-20T14:04:13.978Z,80.11
2022-09-20T14:06:41.034Z,80.12
2022-09-20T14:09:10.983Z,79.58
2022-09-20T14:11:39.113Z,79.42
2022-09-20T14:14:06.291Z,80.52
2022-09-20T14:16:46.957Z,81.86
2022-09-20T14:19:15.568Z,81.60
2022-09-20T14:21:43.756Z,81.38
2022-09-20T14:24:24.900Z,83.24
2022-09-20T14:27:10.925Z,81.94
2022-09-20T14:29:39.955Z,84.12
2022-09-20T14:32:30.250Z,85.14
2022-09-20T14:35:00.317Z,86.09
2022-09-20T14:37:53.427Z,84.18
2022-09-20T14:40:21.002Z,85.07
2022-09-20T14:42:52.394Z,86.66
2022-09-20T14:45:35.342Z,86.17
2022-09-20T14:48:10.732Z,87.34
2022-09-20T14:50:38.023Z,86.89
2022-09-20T14:53:10.958Z,87.35
2022-09-20T14:55:38.631Z,87.15
2022-09-20T14:58:14.632Z,87.95
2022-09-20T15:00:48.184Z,88.49
2022-09-20T15:03:16.012Z,87.27
2022-09-20T15:05:43.226Z,87.47
2022-09-20T15:08:11.150Z,86.74
2022-09-20T15:10:38.207Z,87.26
2022-09-20T15:13:05.922Z,86.13
2022-09-20T15:15:33.661Z,87.42
2022-09-20T15:18:00.900Z,87.45
2022-09-20T15:20:27.926Z,88.16
2022-09-20T15:22:56.413Z,88.51
2022-09-20T15:25:23.613Z,89.07
2022-09-20T15:27:53.684Z,89.47
2022-09-20T15:30:21.115Z,89.69
2022-09-20T15:32:49.197Z,89.81
2022-09-20T15:35:16.288Z,90.46
2022-09-20T15:37:44.082Z,91.19
2022-09-20T15:40:11.274Z,91.65
2022-09-20T15:42:38.372Z,91.26
2022-09-20T15:45:06.889Z,91.36
2022-09-20T15:47:34.024Z,91.76
2022-09-20T15:50:01.414Z,92.11
2022-09-20T15:52:34.424Z,92.41
2022-09-20T15:55:03.690Z,92.54
2022-09-20T15:57:31.649Z,92.68
2022-09-20T16:00:01.641Z,92.70
2022-09-20T16:02:29.321Z,92.73
2022-09-20T16:04:56.518Z,93.18
2022-09-20T16:07:27.348Z,93.74
2022-09-20T16:09:54.899Z,93.55
2022-09-20T16:12:25.043Z,93.95
2022-09-20T16:14:53.436Z,93.97
2022-09-20T16:17:40.414Z,94.52
2022-09-20T16:20:07.911Z,95.31
2022-09-20T16:22:35.156Z,95.22
2022-09-20T16:25:03.930Z,96.12
2022-09-20T16:27:34.174Z,95.71
2022-09-20T16:30:02.537Z,95.28
2022-09-20T16:32:29.803Z,95.06
2022-09-20T16:34:58.562Z,94.84
2022-09-20T16:37:26.583Z,95.12
2022-09-20T16:39:53.891Z,94.99
2022-09-20T16:42:21.035Z,95.37
2022-09-20T16:44:48.068Z,94.77
2022-09-20T16:47:22.084Z,94.68
2022-09-20T16:49:50.277Z,94.33
2022-09-20T16:52:17.838Z,94.51
2022-09-20T16:54:45.638Z,94.69
2022-09-20T16:57:15.323Z,94.86
2022-09-20T16:59:42.901Z,95.36
2022-09-20T17:02:11.092Z,95.75
2022-09-20T17:04:38.702Z,96.17
2022-09-20T17:07:06.105Z,96.11
2022-09-20T17:09:33.202Z,95.82
2022-09-20T17:12:01.259Z,96.18
2022-09-20T17:14:28.523Z,96.62
2022-09-20T17:16:56.698Z,96.77
2022-09-20T17:19:23.880Z,96.42
2022-09-20T17:21:51.246Z,96.41
2022-09-20T17:24:19.309Z,96.18
2022-09-20T17:26:46.439Z,96.32
2022-09-20T17:29:15.220Z,96.39
2022-09-20T17:31:44.015Z,96.42
2022-09-20T17:34:12.024Z,96.08
2022-09-20T17:36:40.747Z,95.92
2022-09-20T17:39:10.862Z,95.88
2022-09-20T17:41:42.208Z,95.29
2022-09-20T17:44:10.083Z,95.35
2022-09-20T17:46:38.386Z,95.85
2022-09-20T17:49:07.496Z,95.71
2022-09-20T17:51:38.912Z,95.39
2022-09-20T17:54:06.126Z,95.63
2022-09-20T17:56:33.468Z,95.73
2022-09-20T17:59:01.524Z,95.91
2022-09-20T18:01:29.097Z,95.70
2022-09-20T18:03:57.584Z,95.97
2022-09-20T18:06:31.814Z,96.04
2022-09-20T18:09:03.012Z,96.22
2022-09-20T18:11:33.955Z,97.11
2022-09-20T18:14:01.777Z,99.02
2022-09-20T18:16:30.848Z,100.00
2022-09-20T18:18:59.854Z,100.00
2022-09-20T18:21:27.375Z,100.00
2022-09-20T18:23:55.412Z,100.00
2022-09-20T18:26:23.415Z,99.77
2022-09-20T18:28:51.610Z,99.70
2022-09-20T18:31:19.100Z,99.17
2022-09-20T18:33:46.320Z,98.56
2022-09-20T18:36:18.367Z,98.11
2022-09-20T18:38:45.773Z,97.85
2022-09-20T18:41:14.500Z,97.74
2022-09-20T18:43:44.508Z,97.60
2022-09-20T18:46:12.263Z,97.92
2022-09-20T18:48:40.234Z,97.95
2022-09-20T18:51:07.724Z,97.64
2022-09-20T18:53:35.755Z,97.51
2022-09-20T18:56:09.392Z,97.66
2022-09-20T18:58:36.717Z,97.66
2022-09-20T19:01:22.747Z,97.48
2022-09-20T19:04:25.377Z,98.12
2022-09-20T19:07:15.788Z,98.23
2022-09-20T19:10:01.641Z,98.62
2022-09-20T19:12:39.457Z,99.32
2022-09-20T19:15:22.722Z,99.67
2022-09-20T19:17:54.288Z,99.78
2022-09-20T19:20:40.143Z,99.65
2022-09-20T19:23:07.298Z,99.77
2022-09-20T19:25:40.840Z,99.85
2022-09-20T19:28:09.126Z,99.70
2022-09-20T19:30:36.384Z,99.18
2022-09-20T19:33:03.518Z,99.52
2022-09-20T19:35:32.453Z,99.65
2022-09-20T19:38:15.502Z,99.28
2022-09-20T19:40:46.468Z,98.94
2022-09-20T19:43:23.659Z,99.09
2022-09-20T19:46:00.290Z,99.54
2022-09-20T19:48:40.406Z,99.69
2022-09-20T19:51:11.282Z,99.19
2022-09-20T19:53:39.541Z,99.98
2022-09-20T19:56:12.677Z,100.00
2022-09-20T19:58:46.580Z,100.00
2022-09-20T20:01:13.728Z,100.00
2022-09-20T20:03:40.898Z,100.00
2022-09-20T20:06:12.323Z,100.00
2022-09-20T20:08:39.429Z,100.00
2022-09-20T20:11:21.683Z,100.00
2022-09-20T20:14:07.965Z,100.00
2022-09-20T20:16:36.062Z,100.00
2022-09-20T20:19:12.881Z,100.00
2022-09-20T20:21:48.837Z,100.00
2022-09-20T20:24:25.900Z,100.00
2022-09-20T20:26:52.965Z,100.00
2022-09-20T20:29:20.279Z,100.00
2022-09-20T20:31:47.341Z,100.00
2022-09-20T20:34:16.372Z,100.00
2022-09-20T20:36:43.984Z,100.00
2022-09-20T20:39:11.377Z,99.63
2022-09-20T20:41:39.299Z,99.99
2022-09-20T20:44:06.714Z,100.00
2022-09-20T20:46:35.834Z,99.28
2022-09-20T20:49:03.499Z,99.50
2022-09-20T20:51:33.118Z,100.00
2022-09-20T20:54:00.234Z,100.00
2022-09-20T20:56:28.738Z,100.00
2022-09-20T20:59:00.520Z,100.00
2022-09-20T21:01:28.961Z,100.00
2022-09-20T21:03:57.139Z,100.00
2022-09-20T21:06:25.229Z,100.00
2022-09-20T21:08:52.640Z,100.00
2022-09-20T21:11:23.542Z,100.00
2022-09-20T21:13:51.210Z,100.00
2022-09-20T21:16:18.970Z,100.00
2022-09-20T21:18:47.254Z,100.00
2022-09-20T21:21:21.532Z,100.00
2022-09-20T21:23:50.664Z,100.00
2022-09-20T21:26:18.395Z,100.00
2022-09-20T21:28:46.202Z,99.61
2022-09-20T21:31:13.353Z,98.86
2022-09-20T21:33:44.064Z,98.65
2022-09-20T21:36:12.911Z,98.52
2022-09-20T21:38:40.376Z,97.46
2022-09-20T21:41:20.059Z,95.70
2022-09-20T21:43:47.691Z,93.96
2022-09-20T21:46:17.656Z,92.23
2022-09-20T21:48:45.057Z,92.44
2022-09-20T21:51:13.821Z,92.90
2022-09-20T21:53:40.869Z,92.21
2022-09-20T21:56:08.788Z,92.20
2022-09-20T21:58:36.153Z,91.02
2022-09-20T22:01:04.238Z,90.37
2022-09-20T22:03:35.191Z,90.86
2022-09-20T22:06:08.797Z,91.28
2022-09-20T22:08:37.125Z,91.68
2022-09-20T22:11:04.228Z,92.12
2022-09-20T22:13:31.627Z,91.90
2022-09-20T22:16:05.389Z,92.13
2022-09-20T22:18:33.559Z,91.20
2022-09-20T22:21:04.553Z,90.68
2022-09-20T22:23:31.649Z,90.95
2022-09-20T22:26:00.079Z,91.22
2022-09-20T22:28:29.645Z,91.24
2022-09-20T22:30:56.879Z,90.79
2022-09-20T22:33:24.011Z,90.69
2022-09-20T22:35:51.404Z,90.70
2022-09-20T22:38:18.759Z,90.09
2022-09-20T22:40:52.764Z,90.03
2022-09-20T22:43:20.045Z,89.88
2022-09-20T22:45:47.097Z,89.75
2022-09-20T22:48:14.134Z,89.77
2022-09-20T22:50:41.147Z,89.69
2022-09-20T22:53:08.282Z,89.83
2022-09-20T22:55:35.316Z,88.98
2022-09-20T22:58:02.552Z,88.58
2022-09-20T23:00:29.714Z,88.30
2022-09-20T23:02:57.974Z,87.96
2022-09-20T23:05:25.672Z,88.67
2022-09-20T23:07:52.911Z,89.62
2022-09-20T23:10:20.014Z,90.12
2022-09-20T23:12:49.693Z,90.04
2022-09-20T23:15:17.243Z,89.78
2022-09-20T23:17:44.386Z,89.88
2022-09-20T23:20:11.644Z,89.61
2022-09-20T23:22:38.689Z,89.66
2022-09-20T23:25:06.061Z,89.58
2022-09-20T23:27:33.253Z,89.67
2022-09-20T23:30:00.305Z,89.93
2022-09-20T23:32:27.335Z,89.86
2022-09-20T23:34:54.328Z,90.15
2022-09-20T23:37:21.405Z,90.12
2022-09-20T23:39:48.441Z,89.77
2022-09-20T23:42:15.524Z,89.91
2022-09-20T23:44:42.574Z,89.76
2022-09-20T23:47:09.653Z,89.24
2022-09-20T23:49:37.336Z,88.67
2022-09-20T23:52:04.892Z,88.77
2022-09-20T23:54:32.813Z,88.80
2022-09-20T23:57:00.271Z,88.74
2022-09-20T23:59:27.529Z,88.56
